createdAt,value
2022-08-18T00:01:34.507Z,21.29
2022-08-18T00:04:03.397Z,21.30
2022-08-18T00:06:30.746Z,21.26
2022-08-18T00:08:59.176Z,21.23
2022-08-18T00:11:26.287Z,21.17
2022-08-18T00:13:55.512Z,21.15
2022-08-18T00:16:22.440Z,21.20
2022-08-18T00:18:48.961Z,21.18
2022-08-18T00:21:15.665Z,21.06
2022-08-18T00:23:44.794Z,21.03
2022-08-18T00:26:11.311Z,20.99
2022-08-18T00:28:37.881Z,21.09
2022-08-18T00:31:05.924Z,21.04
2022-08-18T00:33:33.019Z,21.07
2022-08-18T00:35:59.618Z,21.11
2022-08-18T00:38:26.120Z,21.14
2022-08-18T00:40:54.699Z,21.11
2022-08-18T00:43:36.551Z,21.14
2022-08-18T00:46:07.470Z,21.16
2022-08-18T00:48:34.079Z,21.15
2022-08-18T00:51:13.106Z,21.14
2022-08-18T00:53:47.693Z,21.14
2022-08-18T00:56:24.697Z,21.15
2022-08-18T00:59:02.258Z,21.19
2022-08-18T01:01:31.894Z,21.20
2022-08-18T01:04:07.136Z,21.22
2022-08-18T01:06:40.296Z,21.24
2022-08-18T01:09:08.793Z,21.20
2022-08-18T01:11:38.142Z,21.18
2022-08-18T01:14:09.211Z,21.18
2022-08-18T01:16:57.385Z,21.20
2022-08-18T01:19:45.431Z,21.17
2022-08-18T01:22:37.146Z,21.12
2022-08-18T01:25:26.264Z,21.07
2022-08-18T01:27:57.049Z,21.14
2022-08-18T01:30:28.201Z,21.14
2022-08-18T01:32:55.200Z,21.11
2022-08-18T01:35:25.571Z,21.10
2022-08-18T01:37:57.134Z,21.07
2022-08-18T01:41:21.302Z,21.08
2022-08-18T01:43:11.765Z,20.94
2022-08-18T01:45:38.855Z,20.97
2022-08-18T01:48:05.652Z,20.92
2022-08-18T01:50:36.147Z,20.91
2022-08-18T01:53:05.470Z,20.88
2022-08-18T01:55:37.067Z,20.87
2022-08-18T01:58:03.627Z,20.89
2022-08-18T02:00:30.207Z,20.88
2022-08-18T02:02:58.700Z,20.83
2022-08-18T02:05:36.432Z,20.83
2022-08-18T02:08:05.417Z,20.75
2022-08-18T02:10:33.007Z,20.80
2022-08-18T02:13:00.112Z,20.78
2022-08-18T02:15:26.871Z,20.76
2022-08-18T02:17:53.482Z,20.75
2022-08-18T02:20:20.298Z,20.65
2022-08-18T02:22:49.754Z,20.69
2022-08-18T02:25:17.761Z,20.68
2022-08-18T02:27:44.911Z,20.66
2022-08-18T02:30:14.775Z,20.65
2022-08-18T02:32:42.596Z,20.62
2022-08-18T02:35:11.621Z,20.65
2022-08-18T02:37:42.447Z,20.63
2022-08-18T02:40:11.269Z,20.55
2022-08-18T02:42:42.031Z,20.51
2022-08-18T02:45:09.733Z,20.47
2022-08-18T02:47:36.634Z,20.42
2022-08-18T02:50:03.670Z,20.46
2022-08-18T02:52:32.978Z,20.41
2022-08-18T02:55:03.970Z,20.45
2022-08-18T02:57:31.243Z,20.47
2022-08-18T02:59:57.734Z,20.46
2022-08-18T03:02:26.524Z,20.47
2022-08-18T03:04:53.038Z,20.48
2022-08-18T03:07:19.626Z,20.46
2022-08-18T03:09:46.191Z,20.39
2022-08-18T03:12:15.698Z,20.38
2022-08-18T03:14:42.242Z,20.36
2022-08-18T03:17:09.267Z,20.33
2022-08-18T03:19:36.457Z,20.32
2022-08-18T03:22:05.824Z,20.27
2022-08-18T03:24:52.397Z,20.25
2022-08-18T03:27:18.901Z,20.23
2022-08-18T03:29:45.396Z,20.22
2022-08-18T03:32:11.912Z,20.22
2022-08-18T03:34:38.815Z,20.23
2022-08-18T03:37:05.717Z,20.19
2022-08-18T03:39:32.368Z,20.21
2022-08-18T03:42:01.447Z,20.14
2022-08-18T03:44:36.538Z,20.20
2022-08-18T03:47:07.195Z,20.20
2022-08-18T03:49:34.055Z,20.13
2022-08-18T03:52:01.541Z,20.19
2022-08-18T03:54:29.890Z,20.14
2022-08-18T03:56:56.536Z,20.13
2022-08-18T03:59:25.011Z,20.09
2022-08-18T04:01:54.091Z,20.05
2022-08-18T04:04:26.488Z,20.10
2022-08-18T04:06:57.069Z,20.07
2022-08-18T04:09:27.931Z,20.07
2022-08-18T04:11:55.663Z,20.02
2022-08-18T04:14:26.322Z,20.03
2022-08-18T04:16:52.923Z,19.87
2022-08-18T04:19:26.436Z,19.99
2022-08-18T04:21:56.414Z,20.05
2022-08-18T04:24:23.207Z,20.07
2022-08-18T04:26:50.130Z,20.10
2022-08-18T04:29:21.077Z,20.07
2022-08-18T04:31:48.519Z,20.12
2022-08-18T04:34:15.527Z,20.14
2022-08-18T04:36:43.122Z,20.14
2022-08-18T04:39:12.418Z,20.07
2022-08-18T04:41:43.658Z,20.05
2022-08-18T04:44:11.543Z,20.09
2022-08-18T04:46:42.581Z,20.15
2022-08-18T04:49:10.619Z,20.16
2022-08-18T04:52:36.775Z,20.15
2022-08-18T04:54:37.946Z,20.15
2022-08-18T04:57:11.931Z,20.11
2022-08-18T04:59:38.492Z,20.13
2022-08-18T05:02:12.709Z,20.26
2022-08-18T05:04:42.835Z,20.35
2022-08-18T05:07:14.528Z,20.42
2022-08-18T05:09:44.732Z,20.51
2022-08-18T05:12:14.234Z,20.56
2022-08-18T05:14:42.248Z,20.50
2022-08-18T05:17:08.945Z,20.58
2022-08-18T05:19:35.680Z,20.62
2022-08-18T05:22:08.719Z,20.68
2022-08-18T05:24:37.650Z,20.82
2022-08-18T05:27:05.276Z,21.05
2022-08-18T05:29:41.463Z,21.52
2022-08-18T05:32:37.135Z,21.76
2022-08-18T05:35:05.055Z,21.87
2022-08-18T05:37:47.789Z,21.79
2022-08-18T05:40:15.052Z,21.68
2022-08-18T05:42:42.818Z,21.60
2022-08-18T05:45:16.298Z,21.56
2022-08-18T05:47:43.075Z,21.50
2022-08-18T05:50:13.919Z,21.45
2022-08-18T05:53:00.675Z,21.40
2022-08-18T05:55:49.923Z,21.34
2022-08-18T05:58:33.186Z,21.28
2022-08-18T06:01:02.190Z,21.20
2022-08-18T06:04:21.198Z,21.21
2022-08-18T06:06:49.335Z,21.19
2022-08-18T06:09:22.300Z,21.18
2022-08-18T06:11:50.008Z,21.15
2022-08-18T06:14:16.989Z,21.12
2022-08-18T06:17:00.539Z,21.07
2022-08-18T06:19:45.490Z,21.06
2022-08-18T06:22:17.679Z,21.03
2022-08-18T06:25:02.062Z,20.97
2022-08-18T06:27:39.935Z,21.03
2022-08-18T06:30:21.442Z,21.02
2022-08-18T06:33:06.144Z,21.04
2022-08-18T06:35:44.924Z,21.04
2022-08-18T06:38:40.450Z,21.05
2022-08-18T06:41:41.801Z,21.07
2022-08-18T06:44:15.199Z,21.10
2022-08-18T06:46:47.444Z,21.04
2022-08-18T06:49:58.370Z,21.08
2022-08-18T06:52:29.558Z,21.15
2022-08-18T06:54:59.328Z,21.26
2022-08-18T06:57:30.656Z,21.35
2022-08-18T07:00:05.744Z,21.42
2022-08-18T07:02:43.321Z,21.50
2022-08-18T07:05:24.065Z,21.60
2022-08-18T07:08:28.344Z,21.71
2022-08-18T07:10:54.763Z,21.82
2022-08-18T07:13:28.067Z,22.00
2022-08-18T07:15:56.254Z,22.10
2022-08-18T07:18:29.900Z,22.20
2022-08-18T07:21:01.471Z,22.10
2022-08-18T07:23:40.227Z,22.09
2022-08-18T07:26:15.844Z,22.34
2022-08-18T07:28:48.407Z,22.56
2022-08-18T07:31:27.453Z,22.52
2022-08-18T07:34:12.456Z,22.63
2022-08-18T07:36:48.402Z,22.60
2022-08-18T07:39:30.260Z,22.54
2022-08-18T07:42:00.571Z,22.51
2022-08-18T07:44:48.038Z,22.53
2022-08-18T07:47:24.389Z,22.56
2022-08-18T07:50:15.535Z,22.62
2022-08-18T07:53:09.742Z,22.64
2022-08-18T07:55:36.727Z,22.69
2022-08-18T07:58:38.580Z,22.69
2022-08-18T08:01:29.744Z,22.77
2022-08-18T08:04:29.493Z,22.84
2022-08-18T08:07:24.435Z,22.91
2022-08-18T08:10:03.664Z,22.94
2022-08-18T08:12:41.737Z,23.03
2022-08-18T08:15:26.661Z,23.36
2022-08-18T08:18:08.487Z,23.71
2022-08-18T08:20:51.870Z,23.93
2022-08-18T08:23:28.685Z,24.09
2022-08-18T08:25:57.916Z,24.23
2022-08-18T08:28:53.735Z,24.33
2022-08-18T08:31:48.070Z,24.55
2022-08-18T08:34:25.227Z,24.67
2022-08-18T08:37:02.540Z,24.67
2022-08-18T08:39:48.716Z,24.64
2022-08-18T08:42:49.130Z,24.70
2022-08-18T08:45:22.163Z,24.93
2022-08-18T08:48:14.740Z,25.22
2022-08-18T08:50:52.693Z,25.68
2022-08-18T08:53:25.735Z,26.18
2022-08-18T08:56:02.404Z,26.48
2022-08-18T08:58:37.756Z,26.71
2022-08-18T09:01:05.755Z,27.12
2022-08-18T09:03:58.102Z,27.33
2022-08-18T09:06:57.003Z,27.28
2022-08-18T09:09:38.652Z,27.40
2022-08-18T09:12:29.355Z,27.82
2022-08-18T09:15:13.749Z,28.10
2022-08-18T09:17:43.049Z,28.50
2022-08-18T09:20:41.572Z,28.61
2022-08-18T09:23:13.775Z,28.54
2022-08-18T09:25:42.028Z,28.28
2022-08-18T09:28:15.798Z,27.38
2022-08-18T09:31:00.783Z,27.28
2022-08-18T09:33:44.436Z,27.29
2022-08-18T09:36:25.899Z,27.35
2022-08-18T09:39:33.577Z,27.39
2022-08-18T09:42:49.992Z,27.27
2022-08-18T09:45:33.548Z,27.19
2022-08-18T09:48:13.038Z,27.12
2022-08-18T09:50:53.617Z,27.22
2022-08-18T09:53:46.855Z,27.54
2022-08-18T09:56:37.871Z,27.98
2022-08-18T10:02:37.739Z,28.32
2022-08-18T10:05:18.438Z,28.50
2022-08-18T10:07:47.650Z,28.62
2022-08-18T10:11:02.327Z,28.34
2022-08-18T10:13:55.981Z,28.76
2022-08-18T10:17:13.154Z,29.30
2022-08-18T10:20:01.688Z,29.41
2022-08-18T10:22:47.824Z,28.93
2022-08-18T10:25:52.781Z,29.14
2022-08-18T10:28:50.084Z,29.14
2022-08-18T10:31:18.576Z,29.12
2022-08-18T10:34:17.103Z,29.31
2022-08-18T10:36:53.076Z,29.71
2022-08-18T10:39:27.335Z,30.23
2022-08-18T10:42:06.587Z,30.64
2022-08-18T10:44:44.661Z,30.92
2022-08-18T10:47:25.686Z,30.42
2022-08-18T10:50:06.726Z,29.69
2022-08-18T10:53:24.625Z,29.36
2022-08-18T10:56:05.184Z,29.77
2022-08-18T10:59:02.827Z,30.24
2022-08-18T11:01:56.412Z,30.39
2022-08-18T11:04:33.818Z,29.83
2022-08-18T11:07:19.442Z,29.50
2022-08-18T11:10:04.676Z,29.16
2022-08-18T11:13:07.788Z,28.96
2022-08-18T11:15:52.363Z,28.99
2022-08-18T11:18:36.390Z,29.04
2022-08-18T11:24:28.222Z,28.93
2022-08-18T11:27:03.913Z,29.03
2022-08-18T11:29:38.553Z,29.12
2022-08-18T11:32:12.439Z,28.86
2022-08-18T11:34:58.366Z,28.85
2022-08-18T11:37:52.254Z,29.10
2022-08-18T11:43:24.763Z,29.45
2022-08-18T11:45:57.617Z,29.31
2022-08-18T11:48:37.831Z,29.25
2022-08-18T11:51:17.600Z,29.12
2022-08-18T11:53:59.115Z,28.78
2022-08-18T11:56:37.645Z,28.96
2022-08-18T11:59:09.183Z,29.18
2022-08-18T12:01:44.258Z,29.47
2022-08-18T12:04:11.195Z,29.50
2022-08-18T12:07:00.489Z,29.67
2022-08-18T12:12:32.283Z,29.62
2022-08-18T12:15:36.600Z,29.68
2022-08-18T12:18:18.909Z,30.03
2022-08-18T12:20:54.717Z,30.12
2022-08-18T12:23:21.795Z,30.29
2022-08-18T12:25:51.726Z,30.15
2022-08-18T12:28:19.430Z,29.86
2022-08-18T12:30:48.805Z,29.36
2022-08-18T12:33:25.205Z,29.30
2022-08-18T12:35:52.280Z,28.97
2022-08-18T12:38:18.876Z,29.06
2022-08-18T12:40:45.472Z,29.14
2022-08-18T12:43:12.303Z,29.04
2022-08-18T12:45:42.556Z,29.25
2022-08-18T12:48:09.471Z,29.43
2022-08-18T12:50:49.917Z,29.46
2022-08-18T12:56:17.853Z,29.15
2022-08-18T12:58:46.626Z,29.12
2022-08-18T13:01:13.486Z,29.06
2022-08-18T13:03:45.401Z,29.03
2022-08-18T13:06:32.964Z,28.98
2022-08-18T13:09:00.914Z,28.83
2022-08-18T13:11:27.836Z,28.84
2022-08-18T13:13:56.288Z,28.93
2022-08-18T13:16:30.778Z,29.00
2022-08-18T13:19:07.770Z,29.08
2022-08-18T13:21:38.972Z,29.24
2022-08-18T13:24:09.561Z,29.44
2022-08-18T13:26:39.587Z,29.45
2022-08-18T13:29:10.313Z,29.53
2022-08-18T13:31:38.075Z,29.55
2022-08-18T13:34:07.573Z,29.57
2022-08-18T13:36:48.303Z,29.43
2022-08-18T13:39:17.875Z,29.22
2022-08-18T13:41:47.661Z,29.12
2022-08-18T13:44:18.865Z,29.16
2022-08-18T13:46:48.073Z,29.21
2022-08-18T13:49:18.607Z,29.30
2022-08-18T13:51:53.252Z,29.41
2022-08-18T13:54:30.779Z,29.47
2022-08-18T13:56:58.710Z,29.55
2022-08-18T13:59:31.390Z,29.59
2022-08-18T14:02:00.130Z,29.46
2022-08-18T14:04:27.938Z,29.36
2022-08-18T14:06:57.702Z,29.23
2022-08-18T14:09:35.809Z,29.21
2022-08-18T14:12:15.677Z,29.14
2022-08-18T14:14:49.328Z,29.12
2022-08-18T14:17:19.636Z,28.98
2022-08-18T14:20:10.244Z,28.87
2022-08-18T14:23:00.145Z,28.55
2022-08-18T14:25:46.286Z,28.49
2022-08-18T14:28:13.054Z,28.44
2022-08-18T14:30:40.310Z,28.43
2022-08-18T14:33:11.401Z,28.53
2022-08-18T14:36:04.144Z,28.57
2022-08-18T14:38:25.198Z,28.57
2022-08-18T14:40:52.223Z,28.38
2022-08-18T14:43:25.034Z,28.22
2022-08-18T14:45:53.703Z,28.03
2022-08-18T14:48:27.134Z,28.01
2022-08-18T14:50:55.610Z,28.10
2022-08-18T14:53:25.814Z,28.08
2022-08-18T14:55:53.233Z,28.05
2022-08-18T14:58:27.756Z,28.03
2022-08-18T15:00:57.249Z,28.00
2022-08-18T15:03:28.204Z,28.11
2022-08-18T15:05:59.102Z,28.09
2022-08-18T15:08:26.200Z,28.00
2022-08-18T15:10:54.025Z,27.77
2022-08-18T15:13:20.849Z,27.69
2022-08-18T15:15:53.656Z,27.60
2022-08-18T15:18:22.618Z,27.61
2022-08-18T15:21:19.635Z,27.52
2022-08-18T15:24:19.020Z,27.35
2022-08-18T15:26:47.882Z,27.37
2022-08-18T15:29:18.843Z,27.36
2022-08-18T15:31:50.826Z,27.28
2022-08-18T15:34:20.827Z,27.25
2022-08-18T15:36:48.031Z,27.29
2022-08-18T15:39:14.771Z,27.29
2022-08-18T15:44:22.157Z,27.23
2022-08-18T15:46:53.082Z,27.24
2022-08-18T15:49:23.059Z,27.22
2022-08-18T15:51:50.121Z,27.23
2022-08-18T15:54:19.570Z,27.22
2022-08-18T15:56:57.851Z,27.22
2022-08-18T15:59:27.055Z,27.22
2022-08-18T16:02:05.554Z,27.19
2022-08-18T16:04:32.546Z,27.13
2022-08-18T16:06:59.036Z,27.11
2022-08-18T16:09:28.358Z,27.04
2022-08-18T16:11:57.731Z,27.03
2022-08-18T16:14:26.803Z,27.01
2022-08-18T16:16:55.223Z,26.99
2022-08-18T16:19:21.714Z,26.95
2022-08-18T16:21:57.838Z,26.84
2022-08-18T16:24:24.320Z,26.86
2022-08-18T16:26:51.963Z,26.78
2022-08-18T16:29:19.348Z,26.73
2022-08-18T16:31:46.474Z,26.69
2022-08-18T16:34:13.021Z,26.65
2022-08-18T16:36:39.575Z,26.63
2022-08-18T16:39:06.355Z,26.59
2022-08-18T16:41:33.485Z,26.56
2022-08-18T16:44:00.152Z,26.49
2022-08-18T16:46:28.190Z,26.33
2022-08-18T16:48:56.868Z,26.35
2022-08-18T16:51:25.900Z,26.31
2022-08-18T16:53:53.467Z,26.26
2022-08-18T16:56:23.354Z,26.23
2022-08-18T16:59:08.973Z,26.17
2022-08-18T17:01:55.501Z,26.07
2022-08-18T17:04:26.062Z,25.91
2022-08-18T17:06:52.711Z,25.86
2022-08-18T17:09:23.211Z,25.74
2022-08-18T17:11:51.966Z,25.61
2022-08-18T17:14:21.392Z,25.56
2022-08-18T17:16:51.050Z,25.53
2022-08-18T17:19:17.660Z,25.47
2022-08-18T17:21:47.896Z,25.37
2022-08-18T17:24:14.817Z,25.32
2022-08-18T17:26:48.934Z,25.26
2022-08-18T17:29:27.893Z,25.16
2022-08-18T17:32:02.098Z,25.06
2022-08-18T17:34:37.988Z,24.91
2022-08-18T17:37:10.132Z,24.77
2022-08-18T17:39:41.579Z,24.64
2022-08-18T17:42:27.121Z,24.51
2022-08-18T17:44:59.103Z,24.41
2022-08-18T17:47:33.205Z,24.38
2022-08-18T17:50:28.662Z,24.29
2022-08-18T17:53:05.311Z,24.21
2022-08-18T17:56:01.626Z,24.15
2022-08-18T17:58:31.276Z,24.10
2022-08-18T18:00:57.769Z,24.04
2022-08-18T18:03:24.271Z,23.98
2022-08-18T18:05:58.038Z,23.94
2022-08-18T18:08:53.417Z,23.86
2022-08-18T18:11:26.321Z,23.82
2022-08-18T18:13:54.868Z,23.75
2022-08-18T18:16:35.095Z,23.65
2022-08-18T18:19:12.471Z,23.56
2022-08-18T18:21:58.960Z,23.49
2022-08-18T18:24:32.392Z,23.45
2022-08-18T18:26:59.014Z,23.38
2022-08-18T18:29:33.407Z,23.33
2022-08-18T18:32:20.023Z,23.27
2022-08-18T18:35:03.436Z,23.21
2022-08-18T18:37:33.098Z,23.22
2022-08-18T18:40:06.367Z,23.19
2022-08-18T18:42:35.110Z,23.14
2022-08-18T18:45:08.038Z,23.12
2022-08-18T18:47:47.367Z,23.09
2022-08-18T18:50:27.557Z,23.05
2022-08-18T18:53:13.972Z,23.00
2022-08-18T18:55:57.823Z,22.94
2022-08-18T18:59:05.729Z,22.87
2022-08-18T19:01:58.740Z,22.86
2022-08-18T19:04:37.306Z,22.87
2022-08-18T19:07:20.862Z,22.88
2022-08-18T19:10:06.930Z,22.83
2022-08-18T19:12:51.104Z,22.78
2022-08-18T19:15:19.649Z,22.76
2022-08-18T19:17:55.486Z,22.78
2022-08-18T19:20:29.659Z,22.73
2022-08-18T19:23:05.297Z,22.70
2022-08-18T19:25:51.113Z,22.65
2022-08-18T19:28:31.786Z,22.64
2022-08-18T19:31:10.651Z,22.61
2022-08-18T19:34:01.831Z,22.61
2022-08-18T19:36:58.992Z,22.58
2022-08-18T19:39:42.804Z,22.60
2022-08-18T19:42:35.631Z,22.51
2022-08-18T19:45:16.983Z,22.49
2022-08-18T19:47:56.787Z,22.50
2022-08-18T19:50:34.180Z,22.50
2022-08-18T19:53:17.530Z,22.51
2022-08-18T19:56:22.423Z,22.50
2022-08-18T19:59:18.521Z,22.46
2022-08-18T20:02:12.099Z,22.41
2022-08-18T20:04:51.562Z,22.37
2022-08-18T20:07:53.344Z,22.37
2022-08-18T20:10:31.275Z,22.35
2022-08-18T20:13:13.221Z,22.35
2022-08-18T20:16:02.814Z,22.30
2022-08-18T20:18:37.986Z,22.26
2022-08-18T20:21:22.493Z,22.26
2022-08-18T20:24:12.204Z,22.30
2022-08-18T20:26:41.665Z,22.28
2022-08-18T20:29:31.715Z,22.26
2022-08-18T20:32:00.907Z,22.25
2022-08-18T20:34:30.626Z,22.24
2022-08-18T20:36:59.567Z,22.22
2022-08-18T20:39:48.481Z,22.20
2022-08-18T20:42:21.127Z,22.18
2022-08-18T20:44:50.721Z,22.19
2022-08-18T20:47:55.036Z,22.18
2022-08-18T20:50:39.887Z,22.13
2022-08-18T20:53:34.098Z,22.07
2022-08-18T20:56:32.584Z,21.91
2022-08-18T20:59:12.278Z,22.03
2022-08-18T21:01:39.180Z,22.00
2022-08-18T21:04:06.127Z,21.99
2022-08-18T21:06:38.189Z,21.98
2022-08-18T21:09:04.967Z,21.93
2022-08-18T21:11:41.215Z,21.95
2022-08-18T21:14:12.209Z,21.96
2022-08-18T21:16:48.121Z,21.91
2022-08-18T21:19:27.834Z,21.86
2022-08-18T21:21:59.575Z,21.84
2022-08-18T21:24:36.027Z,21.79
2022-08-18T21:27:11.977Z,21.75
2022-08-18T21:29:47.122Z,21.68
2022-08-18T21:32:27.818Z,21.73
2022-08-18T21:34:57.137Z,21.75
2022-08-18T21:37:23.633Z,21.72
2022-08-18T21:39:56.568Z,21.72
2022-08-18T21:42:23.125Z,21.72
2022-08-18T21:44:54.840Z,21.70
2022-08-18T21:47:26.232Z,21.72
2022-08-18T21:50:29.805Z,21.64
2022-08-18T21:53:12.302Z,21.54
2022-08-18T21:55:42.991Z,21.53
2022-08-18T21:58:18.369Z,21.54
2022-08-18T22:01:07.710Z,21.47
2022-08-18T22:03:36.535Z,21.44
2022-08-18T22:06:17.174Z,21.37
2022-08-18T22:08:55.126Z,21.36
2022-08-18T22:12:00.537Z,21.35
2022-08-18T22:14:35.939Z,21.33
2022-08-18T22:17:23.512Z,21.33
2022-08-18T22:19:50.513Z,21.31
2022-08-18T22:22:38.489Z,21.25
2022-08-18T22:25:06.146Z,21.29
2022-08-18T22:27:32.793Z,21.27
2022-08-18T22:30:04.046Z,21.26
2022-08-18T22:32:37.535Z,21.24
2022-08-18T22:35:06.623Z,21.23
2022-08-18T22:37:42.407Z,21.20
2022-08-18T22:40:13.751Z,21.16
2022-08-18T22:42:41.263Z,21.13
2022-08-18T22:45:19.290Z,21.12
2022-08-18T22:47:45.871Z,21.09
2022-08-18T22:50:13.198Z,21.02
2022-08-18T22:52:47.274Z,21.05
2022-08-18T22:55:21.839Z,21.05
2022-08-18T22:57:51.407Z,21.07
2022-08-18T23:00:23.019Z,21.08
2022-08-18T23:02:50.499Z,21.13
2022-08-18T23:05:17.420Z,21.12
2022-08-18T23:07:43.930Z,21.10
2022-08-18T23:10:13.978Z,21.09
2022-08-18T23:12:43.046Z,21.08
2022-08-18T23:15:11.420Z,21.09
2022-08-18T23:17:40.203Z,21.11
2022-08-18T23:20:11.460Z,21.09
2022-08-18T23:22:39.132Z,21.08
2022-08-18T23:25:09.309Z,21.07
2022-08-18T23:27:36.607Z,21.07
2022-08-18T23:30:04.605Z,21.08
2022-08-18T23:32:31.933Z,21.08
2022-08-18T23:34:58.727Z,21.06
2022-08-18T23:37:25.239Z,21.02
2022-08-18T23:39:55.808Z,21.01
2022-08-18T23:42:23.068Z,21.01
2022-08-18T23:44:49.933Z,21.00
2022-08-18T23:47:18.496Z,20.94
2022-08-18T23:49:45.169Z,20.94
2022-08-18T23:52:11.799Z,20.94
2022-08-18T23:54:39.060Z,20.91
2022-08-18T23:57:05.754Z,20.87
2022-08-18T23:59:32.410Z,20.86
